createdAt,value
2022-10-05T00:00:00.000Z,7.98
2022-10-05T00:15:00.000Z,7.04
2022-10-05T00:30:00.000Z,5.36
2022-10-05T00:45:00.000Z,5
2022-10-05T01:00:00.000Z,4.73
2022-10-05T01:15:00.000Z,4.46
2022-10-05T01:30:00.000Z,3.51
2022-10-05T01:45:00.000Z,3.25
2022-10-05T02:00:00.000Z,3.15
2022-10-05T02:15:00.000Z,3.16
2022-10-05T02:30:00.000Z,3.08
2022-10-05T02:45:00.000Z,2.71
2022-10-05T03:00:00.000Z,2.14
2022-10-05T03:15:00.000Z,2.09
2022-10-05T03:30:00.000Z,1.93
2022-10-05T03:45:00.000Z,1.89
2022-10-05T04:00:00.000Z,1.58
2022-10-05T04:15:00.000Z,1.72
2022-10-05T04:30:00.000Z,2.35
2022-10-05T04:45:00.000Z,1.76
2022-10-05T05:00:00.000Z,2.98
2022-10-05T05:15:00.000Z,3.05
2022-10-05T05:30:00.000Z,2.58
2022-10-05T05:45:00.000Z,2.05
2022-10-05T06:00:00.000Z,1.73
2022-10-05T06:15:00.000Z,1.82
2022-10-05T06:30:00.000Z,2.32
2022-10-05T06:45:00.000Z,2.84
2022-10-05T07:00:00.000Z,2.04
2022-10-05T07:15:00.000Z,1.72
2022-10-05T07:30:00.000Z,1.52
2022-10-05T07:45:00.000Z,1.51
2022-10-05T08:00:00.000Z,1.73
2022-10-05T08:15:00.000Z,1.39
2022-10-05T08:30:00.000Z,1.29
2022-10-05T08:45:00.000Z,1.26
2022-10-05T09:15:00.000Z,2
2022-10-05T09:15:00.000Z,1.45
2022-10-05T09:30:00.000Z,1.27
2022-10-05T09:45:00.000Z,1.24
2022-10-05T10:00:00.000Z,1.22
2022-10-05T10:15:00.000Z,1.2
2022-10-05T10:30:00.000Z,1.93
2022-10-05T10:45:00.000Z,1.65
2022-10-05T11:00:00.000Z,1.26
2022-10-05T11:15:00.000Z,1.38
2022-10-05T11:30:00.000Z,2.34
2022-10-05T11:45:00.000Z,2.98
2022-10-05T12:00:00.000Z,1.74
2022-10-05T12:15:00.000Z,2.98
2022-10-05T12:30:00.000Z,2.41
2022-10-05T12:45:00.000Z,2.12
2022-10-05T13:00:00.000Z,1.83
2022-10-05T13:15:00.000Z,1.64
2022-10-05T13:30:00.000Z,1.62
2022-10-05T13:45:00.000Z,1.93
2022-10-05T14:00:00.000Z,1.89
2022-10-05T14:15:00.000Z,1.81
2022-10-05T14:30:00.000Z,2.69
2022-10-05T14:45:00.000Z,3.4
2022-10-05T15:00:00.000Z,2.45
2022-10-05T15:15:00.000Z,1.71
2022-10-05T15:30:00.000Z,2.94
2022-10-05T15:45:00.000Z,4.55
2022-10-05T16:00:00.000Z,4.51
2022-10-05T16:15:00.000Z,6.92
2022-10-05T16:30:00.000Z,7.31
2022-10-05T16:45:00.000Z,5.82
2022-10-05T17:00:00.000Z,3.99
2022-10-05T17:15:00.000Z,4.58
2022-10-05T17:30:00.000Z,5.19
2022-10-05T17:45:00.000Z,5.11
2022-10-05T18:00:00.000Z,4.39
2022-10-05T18:15:00.000Z,3.34
2022-10-05T18:30:00.000Z,3.6
2022-10-05T18:45:00.000Z,3.4
2022-10-05T19:00:00.000Z,3.59
2022-10-05T19:15:00.000Z,3.28
2022-10-05T19:30:00.000Z,3.32
2022-10-05T19:45:00.000Z,3
2022-10-05T20:00:00.000Z,3.15
2022-10-05T20:15:00.000Z,3
2022-10-05T20:30:00.000Z,3.18
2022-10-05T20:45:00.000Z,2.99
2022-10-05T21:00:00.000Z,2.64
2022-10-05T21:15:00.000Z,2.88
2022-10-05T21:30:00.000Z,2.76
2022-10-05T21:45:00.000Z,2.49
2022-10-05T22:00:00.000Z,2.93
2022-10-05T22:15:00.000Z,2.31
2022-10-05T22:30:00.000Z,1.94
2022-10-05T22:45:00.000Z,1.73
2022-10-05T23:00:00.000Z,1.85
2022-10-05T23:15:00.000Z,2.12
2022-10-05T23:30:00.000Z,2.26
2022-10-05T23:45:00.000Z,2.18
